sensor_id;sensor_type;location;lat;lon;timestamp;temperature;humidity
54796;DHT22;40693;43.884;20.340;2023-01-05T00:00:20;154.10;2252.80
54796;DHT22;40693;43.884;20.340;2023-01-05T00:02:46;154.10;2252.80
54796;DHT22;40693;43.884;20.340;2023-01-05T00:05:12;154.10;2252.80
54796;DHT22;40693;43.884;20.340;2023-01-05T00:07:37;154.10;2252.80
54796;DHT22;40693;43.884;20.340;2023-01-05T00:10:03;154.10;2252.80
54796;DHT22;40693;43.884;20.340;2023-01-05T00:12:29;154.10;2252.80
54796;DHT22;40693;43.884;20.340;2023-01-05T00:15:13;154.20;2252.80
54796;DHT22;40693;43.884;20.340;2023-01-05T00:18:14;154.20;2252.80
54796;DHT22;40693;43.884;20.340;2023-01-05T00:21:00;154.20;2252.80
54796;DHT22;40693;43.884;20.340;2023-01-05T00:23:45;154.20;2252.80
54796;DHT22;40693;43.884;20.340;2023-01-05T00:26:10;154.30;2252.80
54796;DHT22;40693;43.884;20.340;2023-01-05T00:28:36;154.30;2252.80
54796;DHT22;40693;43.884;20.340;2023-01-05T00:31:01;154.30;2252.80
54796;DHT22;40693;43.884;20.340;2023-01-05T00:33:27;154.30;2252.80
54796;DHT22;40693;43.884;20.340;2023-01-05T00:35:53;154.20;2252.80
54796;DHT22;40693;43.884;20.340;2023-01-05T00:38:18;154.30;2252.80
54796;DHT22;40693;43.884;20.340;2023-01-05T00:40:44;154.20;2252.80
54796;DHT22;40693;43.884;20.340;2023-01-05T00:43:09;154.30;2252.80
54796;DHT22;40693;43.884;20.340;2023-01-05T00:45:35;154.30;2252.80
54796;DHT22;40693;43.884;20.340;2023-01-05T00:48:01;154.30;2252.80
54796;DHT22;40693;43.884;20.340;2023-01-05T00:50:26;154.30;2252.80
54796;DHT22;40693;43.884;20.340;2023-01-05T00:52:52;154.10;2252.80
54796;DHT22;40693;43.884;20.340;2023-01-05T00:55:18;154.20;2252.80
54796;DHT22;40693;43.884;20.340;2023-01-05T00:57:44;154.20;2252.80
54796;DHT22;40693;43.884;20.340;2023-01-05T01:00:11;154.30;2252.80
54796;DHT22;40693;43.884;20.340;2023-01-05T01:02:38;154.30;2252.80
54796;DHT22;40693;43.884;20.340;2023-01-05T01:05:04;154.30;2252.80
54796;DHT22;40693;43.884;20.340;2023-01-05T01:07:30;154.20;2252.80
54796;DHT22;40693;43.884;20.340;2023-01-05T01:09:55;154.30;2252.80
54796;DHT22;40693;43.884;20.340;2023-01-05T01:12:21;154.10;2252.80
54796;DHT22;40693;43.884;20.340;2023-01-05T01:14:47;154.10;2252.80
54796;DHT22;40693;43.884;20.340;2023-01-05T01:17:14;154.10;2252.80
54796;DHT22;40693;43.884;20.340;2023-01-05T01:19:39;154.10;2252.80
54796;DHT22;40693;43.884;20.340;2023-01-05T01:22:05;154.10;2252.80
54796;DHT22;40693;43.884;20.340;2023-01-05T01:24:31;154.20;2252.80
54796;DHT22;40693;43.884;20.340;2023-01-05T01:26:57;154.20;2252.80
54796;DHT22;40693;43.884;20.340;2023-01-05T01:29:23;154.30;2252.80
54796;DHT22;40693;43.884;20.340;2023-01-05T01:31:50;154.30;2252.80
54796;DHT22;40693;43.884;20.340;2023-01-05T01:34:16;154.30;2252.80
54796;DHT22;40693;43.884;20.340;2023-01-05T01:36:42;154.30;2252.80
54796;DHT22;40693;43.884;20.340;2023-01-05T01:39:08;154.30;2252.80
54796;DHT22;40693;43.884;20.340;2023-01-05T01:41:34;154.30;2252.80
54796;DHT22;40693;43.884;20.340;2023-01-05T01:44:00;154.30;2252.80
54796;DHT22;40693;43.884;20.340;2023-01-05T01:46:26;154.10;2252.80
54796;DHT22;40693;43.884;20.340;2023-01-05T01:48:53;154.10;2252.80
54796;DHT22;40693;43.884;20.340;2023-01-05T01:51:23;154.00;2252.80
54796;DHT22;40693;43.884;20.340;2023-01-05T01:53:51;153.90;2252.80
54796;DHT22;40693;43.884;20.340;2023-01-05T01:56:18;153.90;2252.80
54796;DHT22;40693;43.884;20.340;2023-01-05T01:58:45;153.90;2252.80
54796;DHT22;40693;43.884;20.340;2023-01-05T02:01:10;154.00;2252.80
54796;DHT22;40693;43.884;20.340;2023-01-05T02:03:36;154.00;2252.80
54796;DHT22;40693;43.884;20.340;2023-01-05T02:06:03;154.10;2252.80
54796;DHT22;40693;43.884;20.340;2023-01-05T02:08:28;154.00;2252.80
54796;DHT22;40693;43.884;20.340;2023-01-05T02:16:34;154.10;2252.80
54796;DHT22;40693;43.884;20.340;2023-01-05T02:21:48;154.10;2252.80
54796;DHT22;40693;43.884;20.340;2023-01-05T02:29:37;154.10;2252.80
54796;DHT22;40693;43.884;20.340;2023-01-05T02:39:36;154.00;2252.80
54796;DHT22;40693;43.884;20.340;2023-01-05T02:42:08;154.00;2252.80
54796;DHT22;40693;43.884;20.340;2023-01-05T02:44:35;154.00;2252.80
54796;DHT22;40693;43.884;20.340;2023-01-05T02:47:04;154.00;2252.80
54796;DHT22;40693;43.884;20.340;2023-01-05T02:49:31;154.10;2252.80
54796;DHT22;40693;43.884;20.340;2023-01-05T02:51:57;154.10;2252.80
54796;DHT22;40693;43.884;20.340;2023-01-05T02:54:39;154.10;2252.80
54796;DHT22;40693;43.884;20.340;2023-01-05T02:57:11;154.20;2252.80
54796;DHT22;40693;43.884;20.340;2023-01-05T02:59:40;154.20;2252.80
54796;DHT22;40693;43.884;20.340;2023-01-05T03:02:08;153.90;2252.80
54796;DHT22;40693;43.884;20.340;2023-01-05T03:04:46;154.20;2252.80
54796;DHT22;40693;43.884;20.340;2023-01-05T03:07:13;154.20;2252.80
54796;DHT22;40693;43.884;20.340;2023-01-05T03:09:40;154.20;2252.80
54796;DHT22;40693;43.884;20.340;2023-01-05T03:14:53;154.20;2252.80
54796;DHT22;40693;43.884;20.340;2023-01-05T03:17:23;154.20;2252.80
54796;DHT22;40693;43.884;20.340;2023-01-05T03:19:49;154.20;2252.80
54796;DHT22;40693;43.884;20.340;2023-01-05T03:22:25;154.20;2252.80
54796;DHT22;40693;43.884;20.340;2023-01-05T03:25:10;154.10;2252.80
54796;DHT22;40693;43.884;20.340;2023-01-05T03:27:56;154.10;2252.80
54796;DHT22;40693;43.884;20.340;2023-01-05T03:36:31;154.00;2252.80
54796;DHT22;40693;43.884;20.340;2023-01-05T03:38:58;153.90;2252.80
54796;DHT22;40693;43.884;20.340;2023-01-05T03:41:25;153.80;2252.80
54796;DHT22;40693;43.884;20.340;2023-01-05T03:43:52;153.90;2252.80
54796;DHT22;40693;43.884;20.340;2023-01-05T03:46:18;153.70;2252.80
54796;DHT22;40693;43.884;20.340;2023-01-05T03:48:45;153.60;2252.80
54796;DHT22;40693;43.884;20.340;2023-01-05T03:51:10;153.70;2252.80
54796;DHT22;40693;43.884;20.340;2023-01-05T03:53:37;153.80;2252.80
54796;DHT22;40693;43.884;20.340;2023-01-05T03:56:03;153.80;2252.80
54796;DHT22;40693;43.884;20.340;2023-01-05T03:58:29;153.80;2252.80
54796;DHT22;40693;43.884;20.340;2023-01-05T04:00:55;153.70;2252.80
54796;DHT22;40693;43.884;20.340;2023-01-05T04:03:20;153.70;2252.80
54796;DHT22;40693;43.884;20.340;2023-01-05T04:05:46;153.70;2252.80
54796;DHT22;40693;43.884;20.340;2023-01-05T04:08:11;153.70;2252.80
54796;DHT22;40693;43.884;20.340;2023-01-05T04:10:37;153.70;2252.80
54796;DHT22;40693;43.884;20.340;2023-01-05T04:13:03;153.70;2252.80
54796;DHT22;40693;43.884;20.340;2023-01-05T04:15:28;153.80;2252.80
54796;DHT22;40693;43.884;20.340;2023-01-05T04:17:54;153.80;2252.80
54796;DHT22;40693;43.884;20.340;2023-01-05T04:20:20;153.80;2252.80
54796;DHT22;40693;43.884;20.340;2023-01-05T04:22:45;153.90;2252.80
54796;DHT22;40693;43.884;20.340;2023-01-05T04:25:11;153.90;2252.80
54796;DHT22;40693;43.884;20.340;2023-01-05T04:27:37;154.00;2252.80
54796;DHT22;40693;43.884;20.340;2023-01-05T04:30:03;154.00;2252.80
54796;DHT22;40693;43.884;20.340;2023-01-05T04:32:29;154.00;2252.80
54796;DHT22;40693;43.884;20.340;2023-01-05T04:34:54;154.00;2252.80
54796;DHT22;40693;43.884;20.340;2023-01-05T04:37:20;154.00;2252.80
54796;DHT22;40693;43.884;20.340;2023-01-05T04:39:47;154.00;2252.80
54796;DHT22;40693;43.884;20.340;2023-01-05T04:42:16;154.00;2252.80
54796;DHT22;40693;43.884;20.340;2023-01-05T04:44:41;154.00;2252.80
54796;DHT22;40693;43.884;20.340;2023-01-05T04:47:07;154.00;2252.80
54796;DHT22;40693;43.884;20.340;2023-01-05T04:49:33;153.60;2252.80
54796;DHT22;40693;43.884;20.340;2023-01-05T04:51:58;154.00;2252.80
54796;DHT22;40693;43.884;20.340;2023-01-05T04:54:24;154.10;2252.80
54796;DHT22;40693;43.884;20.340;2023-01-05T04:56:50;154.00;2252.80
54796;DHT22;40693;43.884;20.340;2023-01-05T04:59:15;154.00;2252.80
54796;DHT22;40693;43.884;20.340;2023-01-05T05:01:41;153.90;2252.80
54796;DHT22;40693;43.884;20.340;2023-01-05T05:04:06;153.90;2252.80
54796;DHT22;40693;43.884;20.340;2023-01-05T05:06:32;128.90;2252.80
54796;DHT22;40693;43.884;20.340;2023-01-05T05:08:58;153.80;2252.80
54796;DHT22;40693;43.884;20.340;2023-01-05T05:11:23;153.70;2252.80
54796;DHT22;40693;43.884;20.340;2023-01-05T05:13:49;153.60;2252.80
54796;DHT22;40693;43.884;20.340;2023-01-05T05:16:18;128.90;2252.80
54796;DHT22;40693;43.884;20.340;2023-01-05T05:18:43;128.90;2252.80
54796;DHT22;40693;43.884;20.340;2023-01-05T05:21:11;128.90;2252.80
54796;DHT22;40693;43.884;20.340;2023-01-05T05:23:37;128.90;2252.80
54796;DHT22;40693;43.884;20.340;2023-01-05T05:26:02;128.80;2252.80
54796;DHT22;40693;43.884;20.340;2023-01-05T05:28:28;128.70;2252.80
54796;DHT22;40693;43.884;20.340;2023-01-05T05:30:54;128.70;2252.80
54796;DHT22;40693;43.884;20.340;2023-01-05T05:33:20;128.70;2252.80
54796;DHT22;40693;43.884;20.340;2023-01-05T05:35:46;128.50;2252.80
54796;DHT22;40693;43.884;20.340;2023-01-05T05:38:12;128.40;2252.80
54796;DHT22;40693;43.884;20.340;2023-01-05T05:40:37;128.50;2252.80
54796;DHT22;40693;43.884;20.340;2023-01-05T05:43:03;128.40;2252.80
54796;DHT22;40693;43.884;20.340;2023-01-05T05:45:29;128.50;2252.80
54796;DHT22;40693;43.884;20.340;2023-01-05T05:47:54;128.60;2252.80
54796;DHT22;40693;43.884;20.340;2023-01-05T05:50:20;128.60;2252.80
54796;DHT22;40693;43.884;20.340;2023-01-05T05:52:46;128.60;2252.80
54796;DHT22;40693;43.884;20.340;2023-01-05T05:55:12;128.60;2252.80
54796;DHT22;40693;43.884;20.340;2023-01-05T05:57:39;128.70;2252.80
54796;DHT22;40693;43.884;20.340;2023-01-05T06:00:05;128.70;2252.80
54796;DHT22;40693;43.884;20.340;2023-01-05T06:02:31;128.90;2252.80
54796;DHT22;40693;43.884;20.340;2023-01-05T06:04:56;128.80;2252.80
54796;DHT22;40693;43.884;20.340;2023-01-05T06:07:22;128.90;2252.80
54796;DHT22;40693;43.884;20.340;2023-01-05T06:09:48;128.90;2252.80
54796;DHT22;40693;43.884;20.340;2023-01-05T06:12:13;128.90;2252.80
54796;DHT22;40693;43.884;20.340;2023-01-05T06:14:39;128.90;2252.80
54796;DHT22;40693;43.884;20.340;2023-01-05T06:17:05;153.60;2252.80
54796;DHT22;40693;43.884;20.340;2023-01-05T06:19:30;153.60;2252.80
54796;DHT22;40693;43.884;20.340;2023-01-05T06:21:56;153.60;2252.80
54796;DHT22;40693;43.884;20.340;2023-01-05T06:24:21;153.60;2252.80
54796;DHT22;40693;43.884;20.340;2023-01-05T06:26:47;153.70;2252.80
54796;DHT22;40693;43.884;20.340;2023-01-05T06:29:13;153.70;2252.80
54796;DHT22;40693;43.884;20.340;2023-01-05T06:31:38;153.70;2252.80
54796;DHT22;40693;43.884;20.340;2023-01-05T06:34:04;153.60;2252.80
54796;DHT22;40693;43.884;20.340;2023-01-05T06:36:30;153.60;2252.80
54796;DHT22;40693;43.884;20.340;2023-01-05T06:38:55;153.70;2252.80
54796;DHT22;40693;43.884;20.340;2023-01-05T06:41:21;153.80;2252.80
54796;DHT22;40693;43.884;20.340;2023-01-05T06:43:47;153.70;2252.80
54796;DHT22;40693;43.884;20.340;2023-01-05T06:46:12;153.70;2252.80
54796;DHT22;40693;43.884;20.340;2023-01-05T06:48:41;153.60;2252.80
54796;DHT22;40693;43.884;20.340;2023-01-05T06:51:07;153.60;2252.80
54796;DHT22;40693;43.884;20.340;2023-01-05T06:53:32;128.80;2252.80
54796;DHT22;40693;43.884;20.340;2023-01-05T06:55:58;128.70;2252.80
54796;DHT22;40693;43.884;20.340;2023-01-05T06:58:24;128.70;2252.80
54796;DHT22;40693;43.884;20.340;2023-01-05T07:00:52;128.80;2252.80
54796;DHT22;40693;43.884;20.340;2023-01-05T07:03:17;128.80;2252.80
54796;DHT22;40693;43.884;20.340;2023-01-05T07:05:43;128.80;2252.80
54796;DHT22;40693;43.884;20.340;2023-01-05T07:08:08;128.90;2252.80
54796;DHT22;40693;43.884;20.340;2023-01-05T07:10:34;153.60;2252.80
54796;DHT22;40693;43.884;20.340;2023-01-05T07:13:00;153.60;2252.80
54796;DHT22;40693;43.884;20.340;2023-01-05T07:15:25;128.90;2252.80
54796;DHT22;40693;43.884;20.340;2023-01-05T07:17:51;128.70;2252.80
54796;DHT22;40693;43.884;20.340;2023-01-05T07:20:17;153.60;2252.80
54796;DHT22;40693;43.884;20.340;2023-01-05T07:22:42;153.70;2252.80
54796;DHT22;40693;43.884;20.340;2023-01-05T07:25:08;153.60;2252.80
54796;DHT22;40693;43.884;20.340;2023-01-05T07:27:34;153.70;2252.80
54796;DHT22;40693;43.884;20.340;2023-01-05T07:30:00;153.70;2252.80
54796;DHT22;40693;43.884;20.340;2023-01-05T07:32:25;153.70;2252.80
54796;DHT22;40693;43.884;20.340;2023-01-05T07:34:51;153.70;2252.80
54796;DHT22;40693;43.884;20.340;2023-01-05T07:37:17;153.80;2252.80
54796;DHT22;40693;43.884;20.340;2023-01-05T07:39:42;153.80;2252.80
54796;DHT22;40693;43.884;20.340;2023-01-05T07:42:08;153.80;2252.80
54796;DHT22;40693;43.884;20.340;2023-01-05T07:44:34;153.70;2252.80
54796;DHT22;40693;43.884;20.340;2023-01-05T07:46:59;153.60;2252.80
54796;DHT22;40693;43.884;20.340;2023-01-05T07:49:26;153.60;2252.80
54796;DHT22;40693;43.884;20.340;2023-01-05T07:51:52;153.70;2252.80
54796;DHT22;40693;43.884;20.340;2023-01-05T07:54:18;153.60;2252.80
54796;DHT22;40693;43.884;20.340;2023-01-05T07:56:46;153.70;2252.80
54796;DHT22;40693;43.884;20.340;2023-01-05T07:59:11;153.70;2252.80
54796;DHT22;40693;43.884;20.340;2023-01-05T08:01:37;153.70;2252.80
54796;DHT22;40693;43.884;20.340;2023-01-05T08:04:02;153.80;2252.80
54796;DHT22;40693;43.884;20.340;2023-01-05T08:06:31;153.90;2252.80
54796;DHT22;40693;43.884;20.340;2023-01-05T08:08:58;153.90;2252.80
54796;DHT22;40693;43.884;20.340;2023-01-05T08:11:44;153.90;2252.80
54796;DHT22;40693;43.884;20.340;2023-01-05T08:14:09;154.00;2252.80
54796;DHT22;40693;43.884;20.340;2023-01-05T08:16:35;154.00;2252.80
54796;DHT22;40693;43.884;20.340;2023-01-05T08:19:00;154.00;2252.80
54796;DHT22;40693;43.884;20.340;2023-01-05T08:21:26;154.10;2252.80
54796;DHT22;40693;43.884;20.340;2023-01-05T08:23:52;154.10;2252.80
54796;DHT22;40693;43.884;20.340;2023-01-05T08:26:19;153.90;2252.80
54796;DHT22;40693;43.884;20.340;2023-01-05T08:28:45;154.00;2252.80
54796;DHT22;40693;43.884;20.340;2023-01-05T08:31:21;154.00;2252.80
54796;DHT22;40693;43.884;20.340;2023-01-05T08:33:46;154.30;2252.80
54796;DHT22;40693;43.884;20.340;2023-01-05T08:36:16;154.00;2252.80
54796;DHT22;40693;43.884;20.340;2023-01-05T08:38:44;154.00;2252.80
54796;DHT22;40693;43.884;20.340;2023-01-05T08:41:15;154.00;2252.80
54796;DHT22;40693;43.884;20.340;2023-01-05T08:43:40;154.00;2252.80
54796;DHT22;40693;43.884;20.340;2023-01-05T08:46:06;154.00;2252.80
54796;DHT22;40693;43.884;20.340;2023-01-05T08:48:31;154.10;2252.80
54796;DHT22;40693;43.884;20.340;2023-01-05T08:51:00;154.10;2252.80
54796;DHT22;40693;43.884;20.340;2023-01-05T08:53:28;154.10;2252.80
54796;DHT22;40693;43.884;20.340;2023-01-05T08:55:53;154.10;2252.80
54796;DHT22;40693;43.884;20.340;2023-01-05T08:58:19;154.10;2252.80
54796;DHT22;40693;43.884;20.340;2023-01-05T09:00:45;154.20;2252.80
54796;DHT22;40693;43.884;20.340;2023-01-05T09:03:10;154.10;2252.80
54796;DHT22;40693;43.884;20.340;2023-01-05T09:05:36;154.00;2252.80
54796;DHT22;40693;43.884;20.340;2023-01-05T09:08:02;154.00;2252.80
54796;DHT22;40693;43.884;20.340;2023-01-05T09:10:29;154.10;2252.80
54796;DHT22;40693;43.884;20.340;2023-01-05T09:12:54;154.10;2252.80
54796;DHT22;40693;43.884;20.340;2023-01-05T09:15:20;154.00;2252.80
54796;DHT22;40693;43.884;20.340;2023-01-05T09:17:45;154.10;2252.80
54796;DHT22;40693;43.884;20.340;2023-01-05T09:20:11;154.20;2252.80
54796;DHT22;40693;43.884;20.340;2023-01-05T09:22:37;154.20;2252.80
54796;DHT22;40693;43.884;20.340;2023-01-05T09:25:03;154.20;2252.80
54796;DHT22;40693;43.884;20.340;2023-01-05T09:27:29;154.40;2252.80
54796;DHT22;40693;43.884;20.340;2023-01-05T09:29:54;154.40;2252.80
54796;DHT22;40693;43.884;20.340;2023-01-05T09:32:20;154.50;2252.80
54796;DHT22;40693;43.884;20.340;2023-01-05T09:34:45;179.20;2252.80
54796;DHT22;40693;43.884;20.340;2023-01-05T09:37:11;179.20;2252.80
54796;DHT22;40693;43.884;20.340;2023-01-05T09:39:36;179.20;2252.80
54796;DHT22;40693;43.884;20.340;2023-01-05T09:42:03;179.20;2252.80
54796;DHT22;40693;43.884;20.340;2023-01-05T09:44:32;154.50;2252.80
54796;DHT22;40693;43.884;20.340;2023-01-05T09:47:23;179.20;2252.80
54796;DHT22;40693;43.884;20.340;2023-01-05T09:49:45;179.30;2252.80
54796;DHT22;40693;43.884;20.340;2023-01-05T09:52:12;179.60;2252.80
54796;DHT22;40693;43.884;20.340;2023-01-05T09:54:38;179.60;2252.80
54796;DHT22;40693;43.884;20.340;2023-01-05T09:57:05;179.70;2252.80
54796;DHT22;40693;43.884;20.340;2023-01-05T09:59:32;179.90;2252.80
54796;DHT22;40693;43.884;20.340;2023-01-05T10:02:00;179.80;2252.80
54796;DHT22;40693;43.884;20.340;2023-01-05T10:04:29;180.10;2252.80
54796;DHT22;40693;43.884;20.340;2023-01-05T10:07:00;204.80;2252.80
54796;DHT22;40693;43.884;20.340;2023-01-05T10:09:29;204.90;2252.80
54796;DHT22;40693;43.884;20.340;2023-01-05T10:17:11;205.00;2252.80
54796;DHT22;40693;43.884;20.340;2023-01-05T10:19:38;205.10;2252.80
54796;DHT22;40693;43.884;20.340;2023-01-05T10:27:24;230.50;2252.80
54796;DHT22;40693;43.884;20.340;2023-01-05T10:30:14;230.90;2252.80
54796;DHT22;40693;43.884;20.340;2023-01-05T10:38:03;230.50;2252.80
54796;DHT22;40693;43.884;20.340;2023-01-05T10:45:40;230.60;2252.80
54796;DHT22;40693;43.884;20.340;2023-01-05T10:48:12;230.70;2252.80
54796;DHT22;40693;43.884;20.340;2023-01-05T10:50:41;230.80;2252.80
54796;DHT22;40693;43.884;20.340;2023-01-05T10:53:15;231.00;2252.80
54796;DHT22;40693;43.884;20.340;2023-01-05T10:55:47;231.10;2252.80
54796;DHT22;40693;43.884;20.340;2023-01-05T10:58:22;231.30;2252.80
54796;DHT22;40693;43.884;20.340;2023-01-05T11:00:48;256.10;2252.80
54796;DHT22;40693;43.884;20.340;2023-01-05T11:03:14;256.70;2252.80
54796;DHT22;40693;43.884;20.340;2023-01-05T11:05:42;256.10;2252.80
54796;DHT22;40693;43.884;20.340;2023-01-05T11:13:34;256.30;2252.80
54796;DHT22;40693;43.884;20.340;2023-01-05T11:16:02;256.60;2252.80
54796;DHT22;40693;43.884;20.340;2023-01-05T11:18:33;256.80;2252.80
54796;DHT22;40693;43.884;20.340;2023-01-05T11:21:03;256.90;2252.80
54796;DHT22;40693;43.884;20.340;2023-01-05T11:23:33;256.90;2252.80
54796;DHT22;40693;43.884;20.340;2023-01-05T11:28:51;256.40;2252.80
54796;DHT22;40693;43.884;20.340;2023-01-05T11:31:21;256.20;2252.80
54796;DHT22;40693;43.884;20.340;2023-01-05T11:33:46;256.00;2252.80
54796;DHT22;40693;43.884;20.340;2023-01-05T11:36:19;231.20;2252.80
54796;DHT22;40693;43.884;20.340;2023-01-05T11:38:48;231.20;2252.80
54796;DHT22;40693;43.884;20.340;2023-01-05T11:41:15;231.30;2252.80
54796;DHT22;40693;43.884;20.340;2023-01-05T11:43:44;231.10;2252.80
54796;DHT22;40693;43.884;20.340;2023-01-05T11:46:11;231.10;2252.80
54796;DHT22;40693;43.884;20.340;2023-01-05T11:48:39;231.00;2252.80
54796;DHT22;40693;43.884;20.340;2023-01-05T11:51:17;231.00;2252.80
54796;DHT22;40693;43.884;20.340;2023-01-05T11:53:56;230.90;2252.80
54796;DHT22;40693;43.884;20.340;2023-01-05T11:56:23;230.70;2252.80
54796;DHT22;40693;43.884;20.340;2023-01-05T11:58:49;230.50;2252.80
54796;DHT22;40693;43.884;20.340;2023-01-05T12:17:56;204.90;2252.80
54796;DHT22;40693;43.884;20.340;2023-01-05T12:20:44;204.90;2252.80
54796;DHT22;40693;43.884;20.340;2023-01-05T12:26:00;204.80;2252.80
54796;DHT22;40693;43.884;20.340;2023-01-05T12:28:30;204.90;2252.80
54796;DHT22;40693;43.884;20.340;2023-01-05T12:31:02;205.00;2252.80
54796;DHT22;40693;43.884;20.340;2023-01-05T12:36:31;205.30;2252.80
54796;DHT22;40693;43.884;20.340;2023-01-05T12:50:10;230.80;2252.80
54796;DHT22;40693;43.884;20.340;2023-01-05T12:52:44;230.90;2252.80
54796;DHT22;40693;43.884;20.340;2023-01-05T12:55:22;230.80;2252.80
54796;DHT22;40693;43.884;20.340;2023-01-05T12:57:49;230.50;2252.80
54796;DHT22;40693;43.884;20.340;2023-01-05T13:00:19;230.50;2252.80
54796;DHT22;40693;43.884;20.340;2023-01-05T13:02:50;230.50;2252.80
54796;DHT22;40693;43.884;20.340;2023-01-05T13:05:22;230.70;2252.80
54796;DHT22;40693;43.884;20.340;2023-01-05T13:12:58;231.20;2252.80
54796;DHT22;40693;43.884;20.340;2023-01-05T13:17:56;256.40;2252.80
54796;DHT22;40693;43.884;20.340;2023-01-05T13:20:25;256.70;2252.80
54796;DHT22;40693;43.884;20.340;2023-01-05T13:22:54;281.60;2278.40
54796;DHT22;40693;43.884;20.340;2023-01-05T13:25:21;281.80;2278.40
54796;DHT22;40693;43.884;20.340;2023-01-05T13:27:48;282.00;2278.40
54796;DHT22;40693;43.884;20.340;2023-01-05T13:30:33;282.10;2278.40
54796;DHT22;40693;43.884;20.340;2023-01-05T13:35:33;282.50;2278.40
54796;DHT22;40693;43.884;20.340;2023-01-05T13:50:42;307.90;2304.00
54796;DHT22;40693;43.884;20.340;2023-01-05T13:53:12;308.10;2304.00
54796;DHT22;40693;43.884;20.340;2023-01-05T13:55:48;308.10;2304.00
54796;DHT22;40693;43.884;20.340;2023-01-05T13:58:26;308.10;2304.00
54796;DHT22;40693;43.884;20.340;2023-01-05T14:00:54;308.10;2304.00
54796;DHT22;40693;43.884;20.340;2023-01-05T14:03:26;332.80;2329.60
54796;DHT22;40693;43.884;20.340;2023-01-05T14:08:28;308.00;2304.00
54796;DHT22;40693;43.884;20.340;2023-01-05T14:13:41;307.80;2304.00
54796;DHT22;40693;43.884;20.340;2023-01-05T14:21:43;307.90;2304.00
54796;DHT22;40693;43.884;20.340;2023-01-05T14:27:08;307.90;2304.00
54796;DHT22;40693;43.884;20.340;2023-01-05T14:32:09;307.80;2304.00
54796;DHT22;40693;43.884;20.340;2023-01-05T14:34:36;307.70;2304.00
54796;DHT22;40693;43.884;20.340;2023-01-05T14:37:03;307.70;2304.00
54796;DHT22;40693;43.884;20.340;2023-01-05T14:39:38;307.60;2304.00
54796;DHT22;40693;43.884;20.340;2023-01-05T14:42:05;307.40;2304.00
54796;DHT22;40693;43.884;20.340;2023-01-05T14:44:33;307.30;2304.00
54796;DHT22;40693;43.884;20.340;2023-01-05T14:47:00;307.20;2304.00
54796;DHT22;40693;43.884;20.340;2023-01-05T14:49:29;282.30;2278.40
54796;DHT22;40693;43.884;20.340;2023-01-05T14:51:56;282.50;2278.40
54796;DHT22;40693;43.884;20.340;2023-01-05T15:02:50;282.10;2278.40
54796;DHT22;40693;43.884;20.340;2023-01-05T15:05:17;281.90;2278.40
54796;DHT22;40693;43.884;20.340;2023-01-05T15:07:45;282.30;2278.40
54796;DHT22;40693;43.884;20.340;2023-01-05T15:12:42;256.90;2252.80
54796;DHT22;40693;43.884;20.340;2023-01-05T15:23:21;256.70;2252.80
54796;DHT22;40693;43.884;20.340;2023-01-05T15:25:44;256.70;2252.80
54796;DHT22;40693;43.884;20.340;2023-01-05T15:33:27;256.20;2252.80
54796;DHT22;40693;43.884;20.340;2023-01-05T15:35:56;256.10;2252.80
54796;DHT22;40693;43.884;20.340;2023-01-05T15:38:25;231.30;2252.80
54796;DHT22;40693;43.884;20.340;2023-01-05T15:43:23;231.10;2252.80
54796;DHT22;40693;43.884;20.340;2023-01-05T15:45:49;231.10;2252.80
54796;DHT22;40693;43.884;20.340;2023-01-05T15:48:20;231.10;2252.80
54796;DHT22;40693;43.884;20.340;2023-01-05T15:50:48;230.90;2252.80
54796;DHT22;40693;43.884;20.340;2023-01-05T15:53:25;231.00;2252.80
54796;DHT22;40693;43.884;20.340;2023-01-05T15:55:51;230.90;2252.80
54796;DHT22;40693;43.884;20.340;2023-01-05T15:58:18;230.80;2252.80
54796;DHT22;40693;43.884;20.340;2023-01-05T16:00:46;230.80;2252.80
54796;DHT22;40693;43.884;20.340;2023-01-05T16:03:30;230.80;2252.80
54796;DHT22;40693;43.884;20.340;2023-01-05T16:06:00;230.80;2252.80
54796;DHT22;40693;43.884;20.340;2023-01-05T16:08:26;230.70;2252.80
54796;DHT22;40693;43.884;20.340;2023-01-05T16:10:53;230.70;2252.80
54796;DHT22;40693;43.884;20.340;2023-01-05T16:13:25;230.60;2252.80
54796;DHT22;40693;43.884;20.340;2023-01-05T16:15:52;230.60;2252.80
54796;DHT22;40693;43.884;20.340;2023-01-05T16:18:23;230.50;2252.80
54796;DHT22;40693;43.884;20.340;2023-01-05T16:20:50;230.50;2252.80
54796;DHT22;40693;43.884;20.340;2023-01-05T16:23:51;230.40;2252.80
54796;DHT22;40693;43.884;20.340;2023-01-05T16:26:12;230.40;2252.80
54796;DHT22;40693;43.884;20.340;2023-01-05T16:28:39;205.70;2252.80
54796;DHT22;40693;43.884;20.340;2023-01-05T16:31:11;205.70;2252.80
54796;DHT22;40693;43.884;20.340;2023-01-05T16:33:36;205.60;2252.80
54796;DHT22;40693;43.884;20.340;2023-01-05T16:36:05;205.50;2252.80
54796;DHT22;40693;43.884;20.340;2023-01-05T16:38:31;205.40;2252.80
54796;DHT22;40693;43.884;20.340;2023-01-05T16:46:06;205.20;2252.80
54796;DHT22;40693;43.884;20.340;2023-01-05T16:48:55;205.20;2252.80
54796;DHT22;40693;43.884;20.340;2023-01-05T16:51:35;205.20;2252.80
54796;DHT22;40693;43.884;20.340;2023-01-05T16:54:12;205.20;2252.80
54796;DHT22;40693;43.884;20.340;2023-01-05T16:56:47;205.20;2252.80
54796;DHT22;40693;43.884;20.340;2023-01-05T16:59:34;205.20;2252.80
54796;DHT22;40693;43.884;20.340;2023-01-05T17:02:25;205.20;2252.80
54796;DHT22;40693;43.884;20.340;2023-01-05T17:04:50;205.10;2252.80
54796;DHT22;40693;43.884;20.340;2023-01-05T17:07:15;205.20;2252.80
54796;DHT22;40693;43.884;20.340;2023-01-05T17:09:41;205.00;2252.80
54796;DHT22;40693;43.884;20.340;2023-01-05T17:12:07;205.00;2252.80
54796;DHT22;40693;43.884;20.340;2023-01-05T17:14:34;204.90;2252.80
54796;DHT22;40693;43.884;20.340;2023-01-05T17:16:59;204.90;2252.80
54796;DHT22;40693;43.884;20.340;2023-01-05T17:19:25;204.90;2252.80
54796;DHT22;40693;43.884;20.340;2023-01-05T17:21:55;204.90;2252.80
54796;DHT22;40693;43.884;20.340;2023-01-05T17:24:21;204.80;2252.80